sensor_id;sensor_type;location;lat;lon;timestamp;P1;durP1;ratioP1;P2;durP2;ratioP2
6432;SDS011;3249;42.690;23.260;2023-04-25T00:00:07;4.43;;;4.13;;
6432;SDS011;3249;42.690;23.260;2023-04-25T00:02:39;4.07;;;3.67;;
6432;SDS011;3249;42.690;23.260;2023-04-25T00:05:08;4.13;;;3.83;;
6432;SDS011;3249;42.690;23.260;2023-04-25T00:07:40;4.40;;;4.00;;
6432;SDS011;3249;42.690;23.260;2023-04-25T00:10:10;4.63;;;4.23;;
6432;SDS011;3249;42.690;23.260;2023-04-25T00:12:39;6.37;;;5.40;;
6432;SDS011;3249;42.690;23.260;2023-04-25T00:15:09;5.13;;;4.63;;
6432;SDS011;3249;42.690;23.260;2023-04-25T00:17:39;6.20;;;5.47;;
6432;SDS011;3249;42.690;23.260;2023-04-25T00:20:09;5.60;;;5.10;;
6432;SDS011;3249;42.690;23.260;2023-04-25T00:22:41;6.47;;;5.73;;
6432;SDS011;3249;42.690;23.260;2023-04-25T00:25:11;6.10;;;5.60;;
6432;SDS011;3249;42.690;23.260;2023-04-25T00:27:39;6.77;;;5.87;;
6432;SDS011;3249;42.690;23.260;2023-04-25T00:30:09;6.03;;;5.50;;
6432;SDS011;3249;42.690;23.260;2023-04-25T00:32:39;6.50;;;5.90;;
6432;SDS011;3249;42.690;23.260;2023-04-25T00:35:08;5.87;;;5.40;;
6432;SDS011;3249;42.690;23.260;2023-04-25T00:37:37;5.07;;;4.70;;
6432;SDS011;3249;42.690;23.260;2023-04-25T00:40:09;4.53;;;4.13;;
6432;SDS011;3249;42.690;23.260;2023-04-25T00:42:39;3.60;;;3.40;;
6432;SDS011;3249;42.690;23.260;2023-04-25T00:45:09;3.57;;;2.83;;
6432;SDS011;3249;42.690;23.260;2023-04-25T00:47:41;2.70;;;2.60;;
6432;SDS011;3249;42.690;23.260;2023-04-25T00:50:10;2.80;;;2.60;;
6432;SDS011;3249;42.690;23.260;2023-04-25T00:52:41;2.30;;;2.20;;
6432;SDS011;3249;42.690;23.260;2023-04-25T00:55:15;2.07;;;1.97;;
6432;SDS011;3249;42.690;23.260;2023-04-25T00:57:44;2.53;;;2.33;;
6432;SDS011;3249;42.690;23.260;2023-04-25T01:00:14;1.97;;;1.87;;
6432;SDS011;3249;42.690;23.260;2023-04-25T01:02:43;1.77;;;1.77;;
6432;SDS011;3249;42.690;23.260;2023-04-25T01:05:13;2.00;;;1.90;;
6432;SDS011;3249;42.690;23.260;2023-04-25T01:07:44;2.07;;;1.97;;
6432;SDS011;3249;42.690;23.260;2023-04-25T01:10:16;4.60;;;4.30;;
6432;SDS011;3249;42.690;23.260;2023-04-25T01:12:45;8.40;;;5.40;;
6432;SDS011;3249;42.690;23.260;2023-04-25T01:15:14;4.27;;;3.97;;
6432;SDS011;3249;42.690;23.260;2023-04-25T01:17:44;6.27;;;5.33;;
6432;SDS011;3249;42.690;23.260;2023-04-25T01:20:14;4.53;;;4.23;;
6432;SDS011;3249;42.690;23.260;2023-04-25T01:22:46;4.33;;;4.03;;
6432;SDS011;3249;42.690;23.260;2023-04-25T01:25:16;4.50;;;3.90;;
6432;SDS011;3249;42.690;23.260;2023-04-25T01:27:45;5.00;;;4.47;;
6432;SDS011;3249;42.690;23.260;2023-04-25T01:30:15;5.73;;;5.23;;
6432;SDS011;3249;42.690;23.260;2023-04-25T01:32:45;2.73;;;2.63;;
6432;SDS011;3249;42.690;23.260;2023-04-25T01:35:16;3.87;;;3.60;;
6432;SDS011;3249;42.690;23.260;2023-04-25T01:37:48;3.53;;;3.33;;
6432;SDS011;3249;42.690;23.260;2023-04-25T01:40:17;3.93;;;3.47;;
6432;SDS011;3249;42.690;23.260;2023-04-25T01:42:46;3.37;;;3.17;;
6432;SDS011;3249;42.690;23.260;2023-04-25T01:45:16;2.80;;;2.60;;
6432;SDS011;3249;42.690;23.260;2023-04-25T01:47:45;4.47;;;3.90;;
6432;SDS011;3249;42.690;23.260;2023-04-25T01:50:16;4.33;;;3.83;;
6432;SDS011;3249;42.690;23.260;2023-04-25T01:52:50;4.27;;;3.90;;
6432;SDS011;3249;42.690;23.260;2023-04-25T01:55:20;4.60;;;4.20;;
6432;SDS011;3249;42.690;23.260;2023-04-25T01:58:01;4.23;;;3.93;;
6432;SDS011;3249;42.690;23.260;2023-04-25T02:00:52;6.27;;;5.00;;
6432;SDS011;3249;42.690;23.260;2023-04-25T02:03:24;3.97;;;3.77;;
6432;SDS011;3249;42.690;23.260;2023-04-25T02:05:55;5.07;;;4.67;;
6432;SDS011;3249;42.690;23.260;2023-04-25T02:08:27;5.67;;;5.17;;
6432;SDS011;3249;42.690;23.260;2023-04-25T02:10:57;6.10;;;5.60;;
6432;SDS011;3249;42.690;23.260;2023-04-25T02:13:32;5.90;;;5.30;;
6432;SDS011;3249;42.690;23.260;2023-04-25T02:16:10;4.97;;;4.67;;
6432;SDS011;3249;42.690;23.260;2023-04-25T02:18:39;7.50;;;6.80;;
6432;SDS011;3249;42.690;23.260;2023-04-25T02:21:08;8.50;;;7.73;;
6432;SDS011;3249;42.690;23.260;2023-04-25T02:23:40;8.80;;;8.00;;
6432;SDS011;3249;42.690;23.260;2023-04-25T02:26:11;12.10;;;10.90;;
6432;SDS011;3249;42.690;23.260;2023-04-25T02:28:41;8.90;;;8.10;;
6432;SDS011;3249;42.690;23.260;2023-04-25T02:31:09;8.17;;;7.37;;
6432;SDS011;3249;42.690;23.260;2023-04-25T02:33:38;9.00;;;8.20;;
6432;SDS011;3249;42.690;23.260;2023-04-25T02:36:26;10.20;;;9.30;;
6432;SDS011;3249;42.690;23.260;2023-04-25T02:39:00;12.97;;;11.07;;
6432;SDS011;3249;42.690;23.260;2023-04-25T02:41:29;11.63;;;10.40;;
6432;SDS011;3249;42.690;23.260;2023-04-25T02:43:58;12.60;;;11.30;;
6432;SDS011;3249;42.690;23.260;2023-04-25T02:46:27;14.53;;;13.03;;
6432;SDS011;3249;42.690;23.260;2023-04-25T02:48:56;15.13;;;10.63;;
6432;SDS011;3249;42.690;23.260;2023-04-25T02:51:25;11.53;;;10.43;;
6432;SDS011;3249;42.690;23.260;2023-04-25T02:53:54;9.37;;;8.53;;
6432;SDS011;3249;42.690;23.260;2023-04-25T02:56:25;12.00;;;10.33;;
6432;SDS011;3249;42.690;23.260;2023-04-25T02:58:55;12.47;;;11.10;;
6432;SDS011;3249;42.690;23.260;2023-04-25T03:01:24;11.23;;;10.10;;
6432;SDS011;3249;42.690;23.260;2023-04-25T03:03:53;10.43;;;9.43;;
6432;SDS011;3249;42.690;23.260;2023-04-25T03:06:22;11.80;;;10.20;;
6432;SDS011;3249;42.690;23.260;2023-04-25T03:08:51;11.60;;;10.00;;
6432;SDS011;3249;42.690;23.260;2023-04-25T03:11:20;13.00;;;10.33;;
6432;SDS011;3249;42.690;23.260;2023-04-25T03:13:52;14.23;;;10.27;;
6432;SDS011;3249;42.690;23.260;2023-04-25T03:16:21;14.57;;;11.83;;
6432;SDS011;3249;42.690;23.260;2023-04-25T03:18:50;12.23;;;11.00;;
6432;SDS011;3249;42.690;23.260;2023-04-25T03:21:19;17.67;;;13.53;;
6432;SDS011;3249;42.690;23.260;2023-04-25T03:23:48;15.33;;;12.90;;
6432;SDS011;3249;42.690;23.260;2023-04-25T03:26:17;13.77;;;12.37;;
6432;SDS011;3249;42.690;23.260;2023-04-25T03:28:47;15.80;;;11.67;;
6432;SDS011;3249;42.690;23.260;2023-04-25T03:31:19;16.33;;;13.17;;
6432;SDS011;3249;42.690;23.260;2023-04-25T03:33:48;15.67;;;12.73;;
6432;SDS011;3249;42.690;23.260;2023-04-25T03:36:19;12.57;;;11.27;;
6432;SDS011;3249;42.690;23.260;2023-04-25T03:38:48;17.03;;;12.23;;
6432;SDS011;3249;42.690;23.260;2023-04-25T03:41:19;14.40;;;12.27;;
6432;SDS011;3249;42.690;23.260;2023-04-25T03:43:55;16.67;;;13.47;;
6432;SDS011;3249;42.690;23.260;2023-04-25T03:46:26;14.00;;;12.67;;
6432;SDS011;3249;42.690;23.260;2023-04-25T03:48:56;17.77;;;15.00;;
6432;SDS011;3249;42.690;23.260;2023-04-25T03:51:34;14.47;;;12.93;;
6432;SDS011;3249;42.690;23.260;2023-04-25T03:54:03;15.33;;;13.40;;
6432;SDS011;3249;42.690;23.260;2023-04-25T03:56:38;14.57;;;12.60;;
6432;SDS011;3249;42.690;23.260;2023-04-25T03:59:16;13.73;;;12.33;;
6432;SDS011;3249;42.690;23.260;2023-04-25T04:01:47;12.93;;;11.73;;
6432;SDS011;3249;42.690;23.260;2023-04-25T04:04:17;12.63;;;11.00;;
6432;SDS011;3249;42.690;23.260;2023-04-25T04:06:46;11.07;;;9.97;;
6432;SDS011;3249;42.690;23.260;2023-04-25T04:09:22;12.23;;;11.10;;
6432;SDS011;3249;42.690;23.260;2023-04-25T04:11:52;12.77;;;11.47;;
6432;SDS011;3249;42.690;23.260;2023-04-25T04:14:21;12.53;;;11.37;;
6432;SDS011;3249;42.690;23.260;2023-04-25T04:16:53;12.73;;;11.53;;
6432;SDS011;3249;42.690;23.260;2023-04-25T04:19:23;11.90;;;10.67;;
6432;SDS011;3249;42.690;23.260;2023-04-25T04:22:02;13.23;;;11.97;;
6432;SDS011;3249;42.690;23.260;2023-04-25T04:24:31;13.23;;;11.83;;
6432;SDS011;3249;42.690;23.260;2023-04-25T04:27:03;12.07;;;10.77;;
6432;SDS011;3249;42.690;23.260;2023-04-25T04:29:40;16.97;;;15.23;;
6432;SDS011;3249;42.690;23.260;2023-04-25T04:32:33;11.77;;;10.67;;
6432;SDS011;3249;42.690;23.260;2023-04-25T04:35:04;12.93;;;11.63;;
6432;SDS011;3249;42.690;23.260;2023-04-25T04:37:35;12.33;;;11.13;;
6432;SDS011;3249;42.690;23.260;2023-04-25T04:40:06;11.10;;;10.00;;
6432;SDS011;3249;42.690;23.260;2023-04-25T04:42:41;20.70;;;18.53;;
6432;SDS011;3249;42.690;23.260;2023-04-25T04:45:26;18.43;;;16.47;;
6432;SDS011;3249;42.690;23.260;2023-04-25T04:48:09;13.43;;;12.10;;
6432;SDS011;3249;42.690;23.260;2023-04-25T04:51:05;15.83;;;14.23;;
6432;SDS011;3249;42.690;23.260;2023-04-25T04:53:48;15.33;;;13.70;;
6432;SDS011;3249;42.690;23.260;2023-04-25T04:56:29;14.60;;;13.10;;
6432;SDS011;3249;42.690;23.260;2023-04-25T04:59:13;17.87;;;14.83;;
6432;SDS011;3249;42.690;23.260;2023-04-25T05:02:02;16.77;;;14.93;;
6432;SDS011;3249;42.690;23.260;2023-04-25T05:05:03;42.63;;;28.57;;
6432;SDS011;3249;42.690;23.260;2023-04-25T05:07:49;19.40;;;14.07;;
6432;SDS011;3249;42.690;23.260;2023-04-25T05:10:41;13.60;;;12.20;;
6432;SDS011;3249;42.690;23.260;2023-04-25T05:13:31;14.53;;;12.97;;
6432;SDS011;3249;42.690;23.260;2023-04-25T05:16:14;14.33;;;12.93;;
6432;SDS011;3249;42.690;23.260;2023-04-25T05:19:10;16.50;;;14.30;;
6432;SDS011;3249;42.690;23.260;2023-04-25T05:21:54;14.90;;;13.23;;
6432;SDS011;3249;42.690;23.260;2023-04-25T05:24:35;14.10;;;12.67;;
6432;SDS011;3249;42.690;23.260;2023-04-25T05:27:27;13.30;;;12.00;;
6432;SDS011;3249;42.690;23.260;2023-04-25T05:30:25;11.53;;;10.27;;
6432;SDS011;3249;42.690;23.260;2023-04-25T05:33:08;13.63;;;12.23;;
6432;SDS011;3249;42.690;23.260;2023-04-25T05:35:38;19.10;;;15.80;;
6432;SDS011;3249;42.690;23.260;2023-04-25T05:38:09;16.00;;;12.93;;
6432;SDS011;3249;42.690;23.260;2023-04-25T05:40:56;19.17;;;17.17;;
6432;SDS011;3249;42.690;23.260;2023-04-25T05:43:41;17.00;;;14.23;;
6432;SDS011;3249;42.690;23.260;2023-04-25T05:46:31;16.30;;;14.37;;
6432;SDS011;3249;42.690;23.260;2023-04-25T05:49:09;13.70;;;12.40;;
6432;SDS011;3249;42.690;23.260;2023-04-25T05:51:58;17.73;;;12.03;;
6432;SDS011;3249;42.690;23.260;2023-04-25T05:54:52;27.80;;;15.67;;
6432;SDS011;3249;42.690;23.260;2023-04-25T05:57:22;18.77;;;16.07;;
6432;SDS011;3249;42.690;23.260;2023-04-25T05:59:53;17.43;;;15.53;;
6432;SDS011;3249;42.690;23.260;2023-04-25T06:02:39;14.23;;;11.87;;
6432;SDS011;3249;42.690;23.260;2023-04-25T06:05:09;15.97;;;13.80;;
6432;SDS011;3249;42.690;23.260;2023-04-25T06:07:38;20.33;;;14.83;;
6432;SDS011;3249;42.690;23.260;2023-04-25T06:10:11;14.87;;;13.33;;
6432;SDS011;3249;42.690;23.260;2023-04-25T06:12:41;15.77;;;14.17;;
6432;SDS011;3249;42.690;23.260;2023-04-25T06:15:12;13.33;;;12.10;;
6432;SDS011;3249;42.690;23.260;2023-04-25T06:17:41;13.33;;;12.00;;
6432;SDS011;3249;42.690;23.260;2023-04-25T06:20:11;12.97;;;10.93;;
6432;SDS011;3249;42.690;23.260;2023-04-25T06:22:40;15.50;;;10.57;;
6432;SDS011;3249;42.690;23.260;2023-04-25T06:25:12;14.60;;;10.87;;
6432;SDS011;3249;42.690;23.260;2023-04-25T06:27:41;12.17;;;10.87;;
6432;SDS011;3249;42.690;23.260;2023-04-25T06:30:12;13.63;;;11.77;;
6432;SDS011;3249;42.690;23.260;2023-04-25T06:32:43;13.57;;;12.27;;
6432;SDS011;3249;42.690;23.260;2023-04-25T06:35:13;16.27;;;14.67;;
6432;SDS011;3249;42.690;23.260;2023-04-25T06:37:42;24.10;;;21.17;;
6432;SDS011;3249;42.690;23.260;2023-04-25T06:40:14;27.93;;;25.00;;
6432;SDS011;3249;42.690;23.260;2023-04-25T06:42:43;20.13;;;17.97;;
6432;SDS011;3249;42.690;23.260;2023-04-25T06:45:45;13.87;;;12.23;;
6432;SDS011;3249;42.690;23.260;2023-04-25T06:48:15;14.70;;;13.17;;
6432;SDS011;3249;42.690;23.260;2023-04-25T06:50:44;19.07;;;13.67;;
6432;SDS011;3249;42.690;23.260;2023-04-25T06:53:13;19.83;;;13.43;;
6432;SDS011;3249;42.690;23.260;2023-04-25T06:55:48;17.07;;;14.03;;
6432;SDS011;3249;42.690;23.260;2023-04-25T06:58:20;18.97;;;14.57;;
6432;SDS011;3249;42.690;23.260;2023-04-25T07:00:59;24.63;;;17.70;;
6432;SDS011;3249;42.690;23.260;2023-04-25T07:03:29;21.03;;;16.60;;
6432;SDS011;3249;42.690;23.260;2023-04-25T07:06:02;22.10;;;15.07;;
6432;SDS011;3249;42.690;23.260;2023-04-25T07:08:32;22.97;;;16.10;;
6432;SDS011;3249;42.690;23.260;2023-04-25T07:11:04;14.77;;;13.27;;
6432;SDS011;3249;42.690;23.260;2023-04-25T07:13:36;14.63;;;12.97;;
6432;SDS011;3249;42.690;23.260;2023-04-25T07:16:07;20.27;;;12.57;;
6432;SDS011;3249;42.690;23.260;2023-04-25T07:18:40;17.23;;;11.97;;
6432;SDS011;3249;42.690;23.260;2023-04-25T07:21:09;21.03;;;13.17;;
6432;SDS011;3249;42.690;23.260;2023-04-25T07:23:40;13.07;;;10.60;;
6432;SDS011;3249;42.690;23.260;2023-04-25T07:26:17;12.93;;;10.57;;
6432;SDS011;3249;42.690;23.260;2023-04-25T07:29:06;24.50;;;21.93;;
6432;SDS011;3249;42.690;23.260;2023-04-25T07:31:36;14.77;;;12.83;;
6432;SDS011;3249;42.690;23.260;2023-04-25T07:34:06;18.23;;;15.37;;
6432;SDS011;3249;42.690;23.260;2023-04-25T07:36:38;18.10;;;12.00;;
6432;SDS011;3249;42.690;23.260;2023-04-25T07:39:08;15.97;;;12.57;;
6432;SDS011;3249;42.690;23.260;2023-04-25T07:41:41;18.77;;;15.60;;
6432;SDS011;3249;42.690;23.260;2023-04-25T07:44:20;20.47;;;16.17;;
6432;SDS011;3249;42.690;23.260;2023-04-25T07:46:49;15.57;;;11.87;;
6432;SDS011;3249;42.690;23.260;2023-04-25T07:49:18;13.97;;;12.57;;
6432;SDS011;3249;42.690;23.260;2023-04-25T07:51:49;15.60;;;12.07;;
6432;SDS011;3249;42.690;23.260;2023-04-25T07:54:19;27.30;;;24.50;;
6432;SDS011;3249;42.690;23.260;2023-04-25T07:56:57;20.13;;;17.00;;
6432;SDS011;3249;42.690;23.260;2023-04-25T07:59:29;19.27;;;16.30;;
6432;SDS011;3249;42.690;23.260;2023-04-25T08:02:01;24.77;;;19.10;;
6432;SDS011;3249;42.690;23.260;2023-04-25T08:04:45;24.53;;;16.17;;
6432;SDS011;3249;42.690;23.260;2023-04-25T08:07:17;16.30;;;10.47;;
6432;SDS011;3249;42.690;23.260;2023-04-25T08:09:52;4.07;;;3.77;;
6432;SDS011;3249;42.690;23.260;2023-04-25T08:12:28;5.77;;;4.10;;
6432;SDS011;3249;42.690;23.260;2023-04-25T08:15:01;4.50;;;4.10;;
6432;SDS011;3249;42.690;23.260;2023-04-25T08:17:34;4.03;;;3.83;;
6432;SDS011;3249;42.690;23.260;2023-04-25T08:20:09;3.87;;;3.67;;
6432;SDS011;3249;42.690;23.260;2023-04-25T08:22:40;3.47;;;3.33;;
6432;SDS011;3249;42.690;23.260;2023-04-25T08:25:32;5.33;;;3.27;;
6432;SDS011;3249;42.690;23.260;2023-04-25T08:28:05;3.43;;;3.23;;
6432;SDS011;3249;42.690;23.260;2023-04-25T08:30:38;3.80;;;3.50;;
6432;SDS011;3249;42.690;23.260;2023-04-25T08:33:11;3.73;;;3.43;;
6432;SDS011;3249;42.690;23.260;2023-04-25T08:35:46;3.40;;;3.20;;
6432;SDS011;3249;42.690;23.260;2023-04-25T08:38:17;4.27;;;3.97;;
6432;SDS011;3249;42.690;23.260;2023-04-25T08:40:49;10.73;;;8.07;;
6432;SDS011;3249;42.690;23.260;2023-04-25T08:43:23;8.27;;;7.50;;
6432;SDS011;3249;42.690;23.260;2023-04-25T08:45:53;10.70;;;7.13;;
6432;SDS011;3249;42.690;23.260;2023-04-25T08:48:39;25.70;;;21.67;;
6432;SDS011;3249;42.690;23.260;2023-04-25T08:51:12;8.40;;;7.53;;
6432;SDS011;3249;42.690;23.260;2023-04-25T08:53:45;3.67;;;3.40;;
6432;SDS011;3249;42.690;23.260;2023-04-25T08:56:17;3.87;;;3.23;;
6432;SDS011;3249;42.690;23.260;2023-04-25T08:58:53;4.00;;;3.70;;
6432;SDS011;3249;42.690;23.260;2023-04-25T09:01:24;4.47;;;4.13;;
6432;SDS011;3249;42.690;23.260;2023-04-25T09:03:53;4.50;;;4.07;;
6432;SDS011;3249;42.690;23.260;2023-04-25T09:06:23;4.43;;;4.10;;
6432;SDS011;3249;42.690;23.260;2023-04-25T09:08:53;4.33;;;3.93;;
6432;SDS011;3249;42.690;23.260;2023-04-25T09:11:22;5.50;;;4.37;;
6432;SDS011;3249;42.690;23.260;2023-04-25T09:13:55;3.90;;;3.60;;
6432;SDS011;3249;42.690;23.260;2023-04-25T09:17:02;5.63;;;5.23;;
6432;SDS011;3249;42.690;23.260;2023-04-25T09:19:52;5.47;;;4.80;;
6432;SDS011;3249;42.690;23.260;2023-04-25T09:22:26;3.50;;;3.23;;
6432;SDS011;3249;42.690;23.260;2023-04-25T09:24:55;4.20;;;3.10;;
6432;SDS011;3249;42.690;23.260;2023-04-25T09:27:28;2.20;;;2.10;;
6432;SDS011;3249;42.690;23.260;2023-04-25T09:30:11;1.87;;;1.77;;
6432;SDS011;3249;42.690;23.260;2023-04-25T09:33:08;1.90;;;1.63;;
6432;SDS011;3249;42.690;23.260;2023-04-25T09:35:43;3.23;;;2.00;;
6432;SDS011;3249;42.690;23.260;2023-04-25T09:38:39;2.03;;;1.93;;
6432;SDS011;3249;42.690;23.260;2023-04-25T09:41:26;1.80;;;1.70;;
6432;SDS011;3249;42.690;23.260;2023-04-25T09:44:00;2.00;;;1.83;;
6432;SDS011;3249;42.690;23.260;2023-04-25T09:46:38;2.03;;;1.93;;
6432;SDS011;3249;42.690;23.260;2023-04-25T09:49:17;4.03;;;2.53;;
6432;SDS011;3249;42.690;23.260;2023-04-25T09:52:06;5.43;;;4.50;;
6432;SDS011;3249;42.690;23.260;2023-04-25T09:54:43;5.57;;;4.20;;
6432;SDS011;3249;42.690;23.260;2023-04-25T09:57:17;4.37;;;4.07;;
6432;SDS011;3249;42.690;23.260;2023-04-25T09:59:51;7.17;;;5.47;;
6432;SDS011;3249;42.690;23.260;2023-04-25T10:05:54;6.60;;;3.40;;
6432;SDS011;3249;42.690;23.260;2023-04-25T10:08:41;3.20;;;3.00;;
6432;SDS011;3249;42.690;23.260;2023-04-25T10:11:12;3.20;;;2.90;;
6432;SDS011;3249;42.690;23.260;2023-04-25T10:13:43;3.83;;;2.87;;
6432;SDS011;3249;42.690;23.260;2023-04-25T10:16:14;2.13;;;1.93;;
6432;SDS011;3249;42.690;23.260;2023-04-25T10:18:44;1.77;;;1.67;;
6432;SDS011;3249;42.690;23.260;2023-04-25T10:21:15;2.03;;;1.77;;
6432;SDS011;3249;42.690;23.260;2023-04-25T10:23:48;1.80;;;1.70;;
6432;SDS011;3249;42.690;23.260;2023-04-25T10:26:18;1.93;;;1.60;;
6432;SDS011;3249;42.690;23.260;2023-04-25T10:28:57;1.73;;;1.63;;
6432;SDS011;3249;42.690;23.260;2023-04-25T10:31:27;2.20;;;1.90;;
6432;SDS011;3249;42.690;23.260;2023-04-25T10:33:58;1.83;;;1.73;;
6432;SDS011;3249;42.690;23.260;2023-04-25T10:36:31;2.70;;;1.93;;
6432;SDS011;3249;42.690;23.260;2023-04-25T10:39:03;4.30;;;1.90;;
6432;SDS011;3249;42.690;23.260;2023-04-25T10:44:26;2.30;;;2.17;;
6432;SDS011;3249;42.690;23.260;2023-04-25T10:46:56;1.30;;;1.20;;
6432;SDS011;3249;42.690;23.260;2023-04-25T10:49:33;2.50;;;1.30;;
6432;SDS011;3249;42.690;23.260;2023-04-25T10:52:24;3.97;;;1.53;;
6432;SDS011;3249;42.690;23.260;2023-04-25T10:54:55;2.00;;;1.70;;
6432;SDS011;3249;42.690;23.260;2023-04-25T10:57:27;2.60;;;1.60;;
6432;SDS011;3249;42.690;23.260;2023-04-25T11:00:01;1.10;;;1.10;;
6432;SDS011;3249;42.690;23.260;2023-04-25T11:02:46;2.30;;;1.50;;
6432;SDS011;3249;42.690;23.260;2023-04-25T11:05:18;1.47;;;1.40;;
6432;SDS011;3249;42.690;23.260;2023-04-25T11:07:58;2.20;;;1.50;;
6432;SDS011;3249;42.690;23.260;2023-04-25T11:10:29;1.87;;;1.77;;
6432;SDS011;3249;42.690;23.260;2023-04-25T11:13:01;2.40;;;1.50;;
6432;SDS011;3249;42.690;23.260;2023-04-25T11:15:30;1.90;;;1.70;;
6432;SDS011;3249;42.690;23.260;2023-04-25T11:17:59;1.17;;;1.10;;
6432;SDS011;3249;42.690;23.260;2023-04-25T11:20:29;1.23;;;1.23;;
6432;SDS011;3249;42.690;23.260;2023-04-25T11:23:00;2.00;;;1.80;;
6432;SDS011;3249;42.690;23.260;2023-04-25T11:25:29;1.47;;;1.40;;
6432;SDS011;3249;42.690;23.260;2023-04-25T11:27:59;1.40;;;1.40;;
6432;SDS011;3249;42.690;23.260;2023-04-25T11:30:28;1.70;;;1.60;;
6432;SDS011;3249;42.690;23.260;2023-04-25T11:32:58;1.83;;;1.73;;
6432;SDS011;3249;42.690;23.260;2023-04-25T11:35:30;2.00;;;1.90;;
6432;SDS011;3249;42.690;23.260;2023-04-25T11:38:02;1.83;;;1.73;;
6432;SDS011;3249;42.690;23.260;2023-04-25T11:40:31;1.90;;;1.80;;
6432;SDS011;3249;42.690;23.260;2023-04-25T11:43:01;2.07;;;1.97;;
6432;SDS011;3249;42.690;23.260;2023-04-25T11:45:30;2.20;;;2.03;;
6432;SDS011;3249;42.690;23.260;2023-04-25T11:48:01;1.57;;;1.57;;
6432;SDS011;3249;42.690;23.260;2023-04-25T11:50:30;1.90;;;1.80;;
6432;SDS011;3249;42.690;23.260;2023-04-25T11:53:02;1.73;;;1.63;;
6432;SDS011;3249;42.690;23.260;2023-04-25T11:55:31;2.27;;;2.17;;
6432;SDS011;3249;42.690;23.260;2023-04-25T11:58:02;1.90;;;1.80;;
6432;SDS011;3249;42.690;23.260;2023-04-25T12:00:34;2.20;;;2.00;;
6432;SDS011;3249;42.690;23.260;2023-04-25T12:03:03;1.90;;;1.80;;
6432;SDS011;3249;42.690;23.260;2023-04-25T12:05:32;1.60;;;1.50;;
6432;SDS011;3249;42.690;23.260;2023-04-25T12:08:12;1.70;;;1.60;;
6432;SDS011;3249;42.690;23.260;2023-04-25T12:10:43;3.60;;;1.67;;
6432;SDS011;3249;42.690;23.260;2023-04-25T12:13:18;1.90;;;1.80;;
6432;SDS011;3249;42.690;23.260;2023-04-25T12:15:48;1.67;;;1.57;;
6432;SDS011;3249;42.690;23.260;2023-04-25T12:18:22;1.87;;;1.77;;
6432;SDS011;3249;42.690;23.260;2023-04-25T12:20:54;1.90;;;1.80;;
6432;SDS011;3249;42.690;23.260;2023-04-25T12:23:28;1.77;;;1.67;;
6432;SDS011;3249;42.690;23.260;2023-04-25T12:25:58;2.17;;;2.00;;
6432;SDS011;3249;42.690;23.260;2023-04-25T12:28:28;2.50;;;1.60;;
6432;SDS011;3249;42.690;23.260;2023-04-25T12:31:00;3.73;;;1.80;;
6432;SDS011;3249;42.690;23.260;2023-04-25T12:33:32;2.10;;;2.00;;
6432;SDS011;3249;42.690;23.260;2023-04-25T12:36:03;4.10;;;2.13;;
6432;SDS011;3249;42.690;23.260;2023-04-25T12:38:41;2.23;;;2.03;;
6432;SDS011;3249;42.690;23.260;2023-04-25T12:41:11;1.77;;;1.67;;
6432;SDS011;3249;42.690;23.260;2023-04-25T12:43:40;4.37;;;1.80;;
6432;SDS011;3249;42.690;23.260;2023-04-25T12:46:09;2.03;;;1.93;;
6432;SDS011;3249;42.690;23.260;2023-04-25T12:48:39;5.13;;;2.23;;
6432;SDS011;3249;42.690;23.260;2023-04-25T12:51:08;2.10;;;1.90;;
6432;SDS011;3249;42.690;23.260;2023-04-25T12:53:40;5.87;;;2.77;;
6432;SDS011;3249;42.690;23.260;2023-04-25T12:56:10;3.53;;;3.03;;
6432;SDS011;3249;42.690;23.260;2023-04-25T12:58:39;2.60;;;2.23;;
6432;SDS011;3249;42.690;23.260;2023-04-25T13:01:09;2.67;;;2.47;;
6432;SDS011;3249;42.690;23.260;2023-04-25T13:03:39;2.97;;;2.63;;
6432;SDS011;3249;42.690;23.260;2023-04-25T13:06:09;2.70;;;2.50;;
6432;SDS011;3249;42.690;23.260;2023-04-25T13:08:41;4.37;;;2.53;;
6432;SDS011;3249;42.690;23.260;2023-04-25T13:11:11;2.60;;;2.43;;
6432;SDS011;3249;42.690;23.260;2023-04-25T13:13:40;3.17;;;2.83;;
6432;SDS011;3249;42.690;23.260;2023-04-25T13:16:09;2.87;;;2.67;;
6432;SDS011;3249;42.690;23.260;2023-04-25T13:18:40;2.87;;;2.50;;
6432;SDS011;3249;42.690;23.260;2023-04-25T13:21:12;3.37;;;2.47;;
6432;SDS011;3249;42.690;23.260;2023-04-25T13:23:43;2.80;;;2.60;;
6432;SDS011;3249;42.690;23.260;2023-04-25T13:26:13;4.17;;;3.23;;
6432;SDS011;3249;42.690;23.260;2023-04-25T13:28:42;3.77;;;3.00;;
6432;SDS011;3249;42.690;23.260;2023-04-25T13:31:12;3.33;;;3.03;;
6432;SDS011;3249;42.690;23.260;2023-04-25T13:33:41;3.97;;;3.70;;
6432;SDS011;3249;42.690;23.260;2023-04-25T13:36:10;4.03;;;3.00;;
6432;SDS011;3249;42.690;23.260;2023-04-25T13:38:40;3.67;;;2.97;;
6432;SDS011;3249;42.690;23.260;2023-04-25T13:41:13;2.67;;;2.33;;
6432;SDS011;3249;42.690;23.260;2023-04-25T13:43:47;2.73;;;2.57;;
6432;SDS011;3249;42.690;23.260;2023-04-25T13:46:26;3.23;;;3.03;;
6432;SDS011;3249;42.690;23.260;2023-04-25T13:48:55;3.13;;;2.93;;
6432;SDS011;3249;42.690;23.260;2023-04-25T13:51:25;4.13;;;3.13;;
6432;SDS011;3249;42.690;23.260;2023-04-25T13:53:57;3.80;;;3.10;;
6432;SDS011;3249;42.690;23.260;2023-04-25T13:56:27;3.57;;;3.30;;
6432;SDS011;3249;42.690;23.260;2023-04-25T13:58:56;4.93;;;3.70;;
6432;SDS011;3249;42.690;23.260;2023-04-25T14:01:25;4.07;;;3.70;;
6432;SDS011;3249;42.690;23.260;2023-04-25T14:03:57;4.50;;;3.67;;
6432;SDS011;3249;42.690;23.260;2023-04-25T14:06:26;3.00;;;2.77;;
6432;SDS011;3249;42.690;23.260;2023-04-25T14:08:58;3.93;;;3.27;;
6432;SDS011;3249;42.690;23.260;2023-04-25T14:11:29;2.40;;;2.30;;
6432;SDS011;3249;42.690;23.260;2023-04-25T14:13:58;3.47;;;3.20;;
6432;SDS011;3249;42.690;23.260;2023-04-25T14:16:29;2.67;;;2.47;;
6432;SDS011;3249;42.690;23.260;2023-04-25T14:18:58;3.10;;;2.90;;
6432;SDS011;3249;42.690;23.260;2023-04-25T14:21:28;1.90;;;1.80;;
6432;SDS011;3249;42.690;23.260;2023-04-25T14:24:00;3.83;;;3.30;;
6432;SDS011;3249;42.690;23.260;2023-04-25T14:26:30;2.00;;;1.90;;
6432;SDS011;3249;42.690;23.260;2023-04-25T14:29:02;2.07;;;1.43;;
6432;SDS011;3249;42.690;23.260;2023-04-25T14:31:32;2.00;;;1.97;;
6432;SDS011;3249;42.690;23.260;2023-04-25T14:34:02;1.80;;;1.70;;
6432;SDS011;3249;42.690;23.260;2023-04-25T14:36:32;1.87;;;1.70;;
6432;SDS011;3249;42.690;23.260;2023-04-25T14:39:04;2.10;;;2.00;;
6432;SDS011;3249;42.690;23.260;2023-04-25T14:41:34;2.00;;;1.90;;
6432;SDS011;3249;42.690;23.260;2023-04-25T14:44:03;3.20;;;2.90;;
6432;SDS011;3249;42.690;23.260;2023-04-25T14:46:32;3.60;;;3.40;;
6432;SDS011;3249;42.690;23.260;2023-04-25T14:49:02;5.97;;;4.70;;
6432;SDS011;3249;42.690;23.260;2023-04-25T14:51:35;5.37;;;4.17;;
6432;SDS011;3249;42.690;23.260;2023-04-25T14:54:07;4.40;;;3.87;;
6432;SDS011;3249;42.690;23.260;2023-04-25T14:56:38;3.67;;;3.30;;
6432;SDS011;3249;42.690;23.260;2023-04-25T14:59:07;2.87;;;2.67;;
6432;SDS011;3249;42.690;23.260;2023-04-25T15:01:36;2.63;;;2.23;;
6432;SDS011;3249;42.690;23.260;2023-04-25T15:04:06;4.03;;;3.23;;
6432;SDS011;3249;42.690;23.260;2023-04-25T15:06:36;2.70;;;2.50;;
6432;SDS011;3249;42.690;23.260;2023-04-25T15:09:08;3.13;;;2.90;;
6432;SDS011;3249;42.690;23.260;2023-04-25T15:11:38;1.87;;;1.77;;
6432;SDS011;3249;42.690;23.260;2023-04-25T15:14:07;1.90;;;1.80;;
6432;SDS011;3249;42.690;23.260;2023-04-25T15:16:37;2.20;;;2.10;;
6432;SDS011;3249;42.690;23.260;2023-04-25T15:22:12;3.00;;;2.30;;
6432;SDS011;3249;42.690;23.260;2023-04-25T15:24:44;2.27;;;2.10;;
6432;SDS011;3249;42.690;23.260;2023-04-25T15:27:13;2.53;;;2.30;;
6432;SDS011;3249;42.690;23.260;2023-04-25T15:29:43;3.77;;;2.50;;
6432;SDS011;3249;42.690;23.260;2023-04-25T15:32:12;9.83;;;2.67;;
6432;SDS011;3249;42.690;23.260;2023-04-25T15:34:42;2.70;;;2.50;;